N515CC KBHM-KBHM
Flight info
| Callsign | N515CC |
|---|---|
| Flight time | 0h 17m |
| Altitude | VFR |
| Route | PATTERNWORK |
| Aircraft | CL60/M-DOV/C |
Departure
| Time | 2026-04-17 00:59 |
|---|---|
| Airport | Birmingham-Shuttlesworth International Airport (KBHM) |
Arrival
| Time | 2026-04-17 01:17 |
|---|---|
| Airport | Birmingham-Shuttlesworth International Airport (KBHM) |
| Time | Latitude | Longitude | Altitude | Speed | Heading |
|---|---|---|---|---|---|
| 2026-04-17 00:53 | 33.56598 | -86.74329 | 635 ft | 21 kts | 289° |
| 2026-04-17 00:54 | 33.56642 | -86.74506 | 632 ft | 24 kts | 269° |
| 2026-04-17 00:54 | 33.56704 | -86.74590 | 634 ft | 16 kts | 359° |
| 2026-04-17 00:54 | 33.56817 | -86.74487 | 636 ft | 24 kts | 55° |
| 2026-04-17 00:54 | 33.56917 | -86.74312 | 641 ft | 28 kts | 54° |
| 2026-04-17 00:55 | 33.57031 | -86.74115 | 647 ft | 28 kts | 55° |
| 2026-04-17 00:55 | 33.57142 | -86.73922 | 656 ft | 26 kts | 56° |
| 2026-04-17 00:55 | 33.57247 | -86.73843 | 662 ft | 10 kts | 326° |
| 2026-04-17 00:55 | 33.57264 | -86.73857 | 662 ft | 0 kts | 323° |
| 2026-04-17 00:58 | 33.57280 | -86.73872 | 662 ft | 14 kts | 323° |
| 2026-04-17 00:58 | 33.57311 | -86.73975 | 659 ft | 17 kts | 235° |
| 2026-04-17 00:59 | 33.57149 | -86.74256 | 647 ft | 76 kts | 236° |
| 2026-04-17 00:59 | 33.56683 | -86.75065 | 652 ft | 153 kts | 235° |
| 2026-04-17 00:59 | 33.56038 | -86.76199 | 1237 ft | 176 kts | 236° |
| 2026-04-17 00:59 | 33.55162 | -86.77275 | 1850 ft | 191 kts | 211° |
| 2026-04-17 01:00 | 33.53852 | -86.77502 | 2058 ft | 194 kts | 169° |
| 2026-04-17 01:00 | 33.52669 | -86.76737 | 2096 ft | 195 kts | 147° |
| 2026-04-17 01:00 | 33.51754 | -86.75539 | 2074 ft | 198 kts | 115° |
| 2026-04-17 01:00 | 33.51691 | -86.73925 | 2066 ft | 199 kts | 70° |
| 2026-04-17 01:01 | 33.52345 | -86.72470 | 2095 ft | 199 kts | 57° |
| 2026-04-17 01:01 | 33.53101 | -86.71111 | 2084 ft | 192 kts | 54° |
| 2026-04-17 01:01 | 33.53840 | -86.69830 | 2077 ft | 182 kts | 54° |
| 2026-04-17 01:01 | 33.54641 | -86.68662 | 1954 ft | 179 kts | 33° |
| 2026-04-17 01:02 | 33.55761 | -86.68323 | 1726 ft | 163 kts | 345° |
| 2026-04-17 01:02 | 33.56733 | -86.68833 | 1597 ft | 148 kts | 326° |
| 2026-04-17 01:02 | 33.57642 | -86.69450 | 1504 ft | 151 kts | 326° |
| 2026-04-17 01:02 | 33.58536 | -86.70114 | 1347 ft | 149 kts | 314° |
| 2026-04-17 01:03 | 33.58796 | -86.71233 | 1236 ft | 149 kts | 249° |
| 2026-04-17 01:03 | 33.58310 | -86.72222 | 1081 ft | 134 kts | 236° |
| 2026-04-17 01:03 | 33.57777 | -86.73160 | 927 ft | 132 kts | 236° |
| 2026-04-17 01:03 | 33.57266 | -86.74054 | 735 ft | 129 kts | 236° |
| 2026-04-17 01:04 | 33.56761 | -86.74931 | 636 ft | 117 kts | 236° |
| 2026-04-17 01:04 | 33.56322 | -86.75692 | 622 ft | 126 kts | 235° |
| 2026-04-17 01:04 | 33.55736 | -86.76730 | 951 ft | 162 kts | 237° |
| 2026-04-17 01:04 | 33.54989 | -86.77709 | 1470 ft | 159 kts | 211° |
| 2026-04-17 01:05 | 33.53888 | -86.77951 | 1798 ft | 171 kts | 173° |
| 2026-04-17 01:05 | 33.52747 | -86.77356 | 2065 ft | 185 kts | 150° |
| 2026-04-17 01:05 | 33.51709 | -86.76408 | 2288 ft | 191 kts | 136° |
| 2026-04-17 01:05 | 33.51158 | -86.74895 | 2270 ft | 203 kts | 93° |
| 2026-04-17 01:06 | 33.51542 | -86.73362 | 2291 ft | 197 kts | 56° |
| 2026-04-17 01:06 | 33.52356 | -86.72034 | 2309 ft | 194 kts | 51° |
| 2026-04-17 01:06 | 33.53179 | -86.70763 | 2287 ft | 195 kts | 51° |
| 2026-04-17 01:06 | 33.54007 | -86.69486 | 2289 ft | 194 kts | 51° |
| 2026-04-17 01:07 | 33.54836 | -86.68211 | 2288 ft | 194 kts | 51° |
| 2026-04-17 01:07 | 33.55675 | -86.66923 | 2286 ft | 196 kts | 51° |
| 2026-04-17 01:07 | 33.56520 | -86.65627 | 2275 ft | 197 kts | 51° |
| 2026-04-17 01:07 | 33.57379 | -86.64308 | 2284 ft | 211 kts | 51° |
| 2026-04-17 01:08 | 33.58332 | -86.62859 | 2293 ft | 225 kts | 49° |
| 2026-04-17 01:08 | 33.59573 | -86.61797 | 2274 ft | 219 kts | 15° |
| 2026-04-17 01:08 | 33.60984 | -86.61833 | 2290 ft | 191 kts | 336° |
| 2026-04-17 01:08 | 33.61911 | -86.62808 | 2277 ft | 179 kts | 293° |
| 2026-04-17 01:09 | 33.62180 | -86.64280 | 2284 ft | 181 kts | 269° |
| 2026-04-17 01:09 | 33.61914 | -86.65740 | 2247 ft | 181 kts | 243° |
| 2026-04-17 01:09 | 33.61256 | -86.67001 | 2027 ft | 177 kts | 238° |
| 2026-04-17 01:09 | 33.60585 | -86.68240 | 1814 ft | 175 kts | 237° |
| 2026-04-17 01:10 | 33.59917 | -86.69429 | 1595 ft | 166 kts | 236° |
| 2026-04-17 01:10 | 33.59300 | -86.70508 | 1375 ft | 146 kts | 236° |
| 2026-04-17 01:10 | 33.58725 | -86.71514 | 1221 ft | 140 kts | 236° |
| 2026-04-17 01:10 | 33.58181 | -86.72467 | 1026 ft | 137 kts | 236° |
| 2026-04-17 01:11 | 33.57650 | -86.73390 | 851 ft | 136 kts | 236° |
| 2026-04-17 01:11 | 33.57117 | -86.74313 | 681 ft | 134 kts | 236° |
| 2026-04-17 01:11 | 33.56626 | -86.75161 | 629 ft | 111 kts | 235° |
| 2026-04-17 01:11 | 33.56130 | -86.76026 | 654 ft | 152 kts | 235° |
| 2026-04-17 01:12 | 33.55476 | -86.77159 | 1078 ft | 176 kts | 235° |
| 2026-04-17 01:12 | 33.54707 | -86.78250 | 1615 ft | 171 kts | 217° |
| 2026-04-17 01:12 | 33.53596 | -86.78773 | 1975 ft | 180 kts | 190° |
| 2026-04-17 01:12 | 33.52325 | -86.78580 | 2254 ft | 195 kts | 157° |
| 2026-04-17 01:13 | 33.51156 | -86.77695 | 2291 ft | 192 kts | 143° |
| 2026-04-17 01:13 | 33.50483 | -86.76419 | 2262 ft | 176 kts | 98° |
| 2026-04-17 01:13 | 33.50770 | -86.75080 | 2258 ft | 170 kts | 55° |
| 2026-04-17 01:13 | 33.51439 | -86.73993 | 2312 ft | 155 kts | 51° |
| 2026-04-17 01:14 | 33.52079 | -86.72997 | 2281 ft | 152 kts | 51° |
| 2026-04-17 01:14 | 33.52736 | -86.71978 | 2181 ft | 154 kts | 50° |
| 2026-04-17 01:14 | 33.53399 | -86.70985 | 2020 ft | 151 kts | 44° |
| 2026-04-17 01:14 | 33.54319 | -86.70423 | 1852 ft | 145 kts | 4° |
| 2026-04-17 01:15 | 33.55285 | -86.70620 | 1640 ft | 141 kts | 328° |
| 2026-04-17 01:15 | 33.56115 | -86.71286 | 1502 ft | 140 kts | 321° |
| 2026-04-17 01:15 | 33.56905 | -86.71909 | 1304 ft | 131 kts | 321° |
| 2026-04-17 01:15 | 33.57560 | -86.72658 | 1108 ft | 133 kts | 290° |
| 2026-04-17 01:16 | 33.57457 | -86.73695 | 853 ft | 130 kts | 240° |
| 2026-04-17 01:16 | 33.56965 | -86.74576 | 645 ft | 122 kts | 236° |
| 2026-04-17 01:16 | 33.56528 | -86.75333 | 625 ft | 98 kts | 236° |
| 2026-04-17 01:16 | 33.56196 | -86.75911 | 622 ft | 71 kts | 235° |
| 2026-04-17 01:17 | 33.55953 | -86.76333 | 622 ft | 52 kts | 235° |
| 2026-04-17 01:17 | 33.55771 | -86.76649 | 618 ft | 39 kts | 236° |
| 2026-04-17 01:17 | 33.55638 | -86.76881 | 613 ft | 29 kts | 235° |
| 2026-04-17 01:17 | 33.55541 | -86.77050 | 612 ft | 20 kts | 236° |
| 2026-04-17 01:18 | 33.55456 | -86.77119 | 609 ft | 13 kts | 150° |
| 2026-04-17 01:18 | 33.55427 | -86.77047 | 608 ft | 9 kts | 64° |
| 2026-04-17 01:18 | 33.55466 | -86.76976 | 610 ft | 10 kts | 55° |
| 2026-04-17 01:18 | 33.55519 | -86.76884 | 611 ft | 32 kts | 56° |